Time;durP1;ratioP1;P1;durP2;ratioP2;P2;SDS_P1;SDS_P2;PMS_P1;PMS_P2;Temp;Humidity;BMP_temperature;BMP_pressure;BME280_temperature;BME280_humidity;BME280_pressure;Samples;Min_cycle;Max_cycle;Signal;HPM_P1;HPM_P2
2023/09/20 00:01:27;;;;;;;6.15;2.92;;;;;;;;;;5035051;28;20132;-75
2023/09/20 00:03:53;;;;;;;6.22;2.50;;;;;;;;;;5017370;28;20514;-74
2023/09/20 00:06:20;;;;;;;7.43;2.67;;;;;;;;;;5018776;28;20091;-73
2023/09/20 00:08:46;;;;;;;7.32;2.60;;;21.30;95.00;;;;;;5028844;28;20053;-75
2023/09/20 00:11:18;;;;;;;6.40;2.80;;;21.20;94.90;;;;;;5043780;23;20049;-74
2023/09/20 00:13:45;;;;;;;;;;;21.70;94.10;;;;;;5074450;28;20738;-75
2023/09/20 00:16:11;;;;;;;5.03;2.45;;;;;;;;;;5056034;28;19928;-76
2023/09/20 00:18:38;;;;;;;6.25;2.58;;;;;;;;;;5073514;28;20040;-75
2023/09/20 00:21:04;;;;;;;4.75;2.20;;;;;;;;;;5074661;28;20063;-74
2023/09/20 00:23:31;;;;;;;5.32;2.60;;;;;;;;;;5052251;28;20072;-74
2023/09/20 00:25:57;;;;;;;5.28;2.47;;;21.20;95.10;;;;;;5039266;28;20071;-75
2023/09/20 00:28:24;;;;;;;7.88;2.88;;;;;;;;;;5056317;28;20049;-73
2023/09/20 00:30:52;;;;;;;9.13;2.92;;;21.40;93.40;;;;;;5056052;28;20458;-74
2023/09/20 00:33:18;;;;;;;6.20;2.60;;;;;;;;;;5039305;28;20036;-74
2023/09/20 00:35:44;;;;;;;6.45;2.50;;;;;;;;;;5073860;28;20492;-75
2023/09/20 00:38:16;;;;;;;7.93;3.00;;;;;;;;;;5073523;28;20048;-73
2023/09/20 00:40:47;;;;;;;6.50;2.30;;;;;;;;;;5056782;28;20041;-75
2023/09/20 00:43:15;;;;;;;6.28;2.30;;;;;;;;;;5055815;28;20091;-74
2023/09/20 00:45:42;;;;;;;6.35;2.85;;;;;;;;;;5056506;28;20076;-74
2023/09/20 00:48:08;;;;;;;7.22;3.03;;;;;;;;;;5052670;28;20045;-75
2023/09/20 00:50:41;;;;;;;6.95;2.70;;;21.30;94.20;;;;;;5039484;28;20079;-75
2023/09/20 00:53:12;;;;;;;5.95;2.60;;;21.20;94.10;;;;;;5051022;28;20057;-75
2023/09/20 00:55:38;;;;;;;6.22;2.70;;;21.20;95.20;;;;;;5025780;28;20056;-73
2023/09/20 00:58:07;;;;;;;5.25;2.13;;;21.30;95.30;;;;;;5054926;28;20048;-74
2023/09/20 01:00:33;;;;;;;4.63;2.38;;;;;;;;;;5039645;28;20083;-74
2023/09/20 01:03:01;;;;;;;6.03;2.80;;;21.20;94.00;;;;;;5055707;28;20059;-74
2023/09/20 01:05:28;;;;;;;5.95;2.72;;;;;;;;;;5072722;28;20044;-74
2023/09/20 01:07:59;;;;;;;7.30;2.40;;;;;;;;;;5071133;28;20048;-74
2023/09/20 01:10:26;;;;;;;6.95;2.92;;;;;;;;;;5039347;28;20036;-73
2023/09/20 01:12:58;;;;;;;7.38;2.70;;;21.20;94.20;;;;;;5054335;28;20044;-74
2023/09/20 01:15:26;;;;;;;5.65;2.72;;;21.20;95.40;;;;;;5059346;28;20054;-75
2023/09/20 01:17:55;;;;;;;6.60;2.50;;;21.30;95.30;;;;;;5055952;28;20412;-73
2023/09/20 01:20:23;;;;;;;6.60;2.45;;;21.30;95.40;;;;;;5060118;28;20059;-72
2023/09/20 01:22:59;;;;;;;8.18;2.80;;;21.30;95.40;;;;;;5074928;28;20122;-74
2023/09/20 01:25:25;;;;;;;7.22;2.78;;;21.40;94.10;;;;;;5043253;28;20538;-74
2023/09/20 01:27:55;;;;;;;8.60;3.00;;;21.20;93.90;;;;;;5074148;28;20474;-75
2023/09/20 01:30:30;;;;;;;7.60;3.03;;;21.10;95.30;;;;;;5092203;28;20036;-75
2023/09/20 01:33:00;;;;;;;7.90;2.88;;;21.10;95.30;;;;;;5093266;28;20079;-74
2023/09/20 01:35:28;;;;;;;8.45;3.17;;;21.20;94.20;;;;;;5093007;28;20490;-74
2023/09/20 01:37:55;;;;;;;6.88;2.85;;;;;;;;;;5091248;28;20097;-73
2023/09/20 01:40:25;;;;;;;8.55;3.28;;;21.40;95.70;;;;;;5064153;28;20036;-74
2023/09/20 01:42:52;;;;;;;6.32;2.75;;;;;;;;;;5074103;28;20129;-74
2023/09/20 01:45:18;;;;;;;5.78;2.80;;;;;;;;;;5091677;28;20509;-71
2023/09/20 01:47:45;;;;;;;6.25;2.92;;;21.20;95.30;;;;;;5041722;28;20054;-72
2023/09/20 01:50:21;;;;;;;9.48;3.10;;;21.30;95.30;;;;;;5058040;28;20054;-72
2023/09/20 01:52:50;;;;;;;7.70;2.75;;;21.30;94.20;;;;;;5093204;28;20122;-72
2023/09/20 01:55:21;;;;;;;7.70;3.25;;;21.40;94.10;;;;;;5056065;28;20040;-72
2023/09/20 01:57:47;;;;;;;6.57;2.67;;;;;;;;;;5038208;28;20367;-74
2023/09/20 02:00:51;;;;;;;8.30;3.35;;;21.30;95.30;;;;;;5038236;28;20051;-74
2023/09/20 02:03:14;;;;;;;6.65;2.92;;;21.30;95.40;;;;;;5058411;28;20098;-72
2023/09/20 02:05:40;;;;;;;6.78;3.13;;;21.20;95.50;;;;;;5021132;28;20052;-73
2023/09/20 02:08:08;;;;;;;6.75;3.25;;;;;;;;;;5076730;28;20040;-71
2023/09/20 02:10:36;;;;;;;9.20;3.33;;;21.50;94.00;;;;;;5090995;28;20128;-73
2023/09/20 02:13:05;;;;;;;6.47;2.70;;;21.20;95.30;;;;;;5073788;28;20110;-74
2023/09/20 02:15:35;;;;;;;9.30;3.00;;;21.40;94.10;;;;;;5073826;28;20080;-73
2023/09/20 02:18:05;;;;;;;9.75;2.97;;;21.10;95.30;;;;;;5092611;28;20044;-74
2023/09/20 02:20:34;;;;;;;7.93;2.85;;;21.10;95.30;;;;;;5037452;28;20044;-74
2023/09/20 02:23:01;;;;;;;5.90;2.60;;;;;;;;;;5070848;28;20040;-73
2023/09/20 02:25:28;;;;;;;9.98;3.30;;;21.10;95.30;;;;;;5071888;28;20040;-74
2023/09/20 02:27:57;;;;;;;6.13;2.78;;;;;;;;;;5073478;28;20075;-74
2023/09/20 02:30:28;;;;;;;6.68;3.05;;;;;;;;;;5108350;28;20083;-74
2023/09/20 02:32:58;;;;;;;6.65;2.90;;;21.10;95.30;;;;;;5092420;28;20070;-74
2023/09/20 02:35:25;;;;;;;9.38;3.25;;;21.10;94.20;;;;;;5090191;28;20507;-74
2023/09/20 02:37:52;;;;;;;7.20;2.70;;;;;;;;;;5092347;28;20078;-73
2023/09/20 02:40:18;;;;;;;8.15;2.75;;;;;;;;;;5074393;28;20052;-74
2023/09/20 02:42:49;;;;;;;5.93;2.75;;;21.30;94.10;;;;;;5054937;28;20052;-70
2023/09/20 02:45:17;;;;;;;6.85;2.75;;;21.30;95.30;;;;;;5088270;28;20055;-73
2023/09/20 02:47:44;;;;;;;7.95;2.95;;;;;;;;;;5093498;28;20047;-74
2023/09/20 02:50:12;;;;;;;9.88;3.00;;;21.10;93.80;;;;;;5096161;28;20043;-73
2023/09/20 02:52:41;;;;;;;7.95;3.00;;;21.20;95.30;;;;;;5077256;28;20040;-74
2023/09/20 02:55:08;;;;;;;7.18;3.08;;;21.10;95.30;;;;;;5077291;28;20387;-74
2023/09/20 02:57:37;;;;;;;7.30;2.90;;;21.10;95.30;;;;;;5057410;28;20040;-74
2023/09/20 03:00:11;;;;;;;7.22;2.80;;;21.00;95.30;;;;;;5077978;28;20544;-75
2023/09/20 03:02:37;;;;;;;6.55;2.92;;;21.20;95.30;;;;;;5077963;28;20161;-74
2023/09/20 03:05:05;;;;;;;7.90;3.20;;;21.10;95.30;;;;;;5095879;28;20082;-74
2023/09/20 03:07:31;;;;;;;8.07;3.15;;;;;;;;;;5076578;28;20072;-75
2023/09/20 03:09:59;;;;;;;7.05;3.13;;;21.10;94.10;;;;;;5095568;28;20440;-73
2023/09/20 03:12:27;;;;;;;8.63;2.97;;;;;;;;;;5094630;28;20059;-74
2023/09/20 03:14:53;;;;;;;8.27;2.72;;;;;;;;;;5078521;28;20051;-75
2023/09/20 03:17:20;;;;;;;7.93;2.95;;;;;;;;;;5092612;28;20044;-74
2023/09/20 03:19:46;;;;;;;8.55;3.05;;;;;;;;;;5073783;28;20082;-74
2023/09/20 03:22:13;;;;;;;5.95;2.90;;;;;;;;;;5094065;28;20117;-73
2023/09/20 03:24:40;;;;;;;7.10;2.83;;;;;;;;;;5094396;28;20035;-72
2023/09/20 03:27:06;;;;;;;6.70;2.90;;;;;;;;;;5074746;28;20052;-74
2023/09/20 03:29:32;;;;;;;5.93;2.78;;;;;;;;;;5094507;28;20047;-74
2023/09/20 03:32:00;;;;;;;6.72;2.88;;;;;;;;;;5095799;28;20051;-74
2023/09/20 03:34:26;;;;;;;6.57;2.72;;;;;;;;;;5076888;28;20040;-73
2023/09/20 03:36:57;;;;;;;6.70;2.55;;;;;;;;;;5093668;28;20044;-74
2023/09/20 03:39:24;;;;;;;7.15;3.00;;;;;;;;;;5077574;28;20389;-75
2023/09/20 03:41:51;;;;;;;7.18;2.70;;;21.10;94.10;;;;;;5076968;28;20068;-74
2023/09/20 03:44:19;;;;;;;6.53;3.08;;;21.10;94.10;;;;;;5077279;28;20087;-74
2023/09/20 03:46:47;;;;;;;6.53;2.83;;;;;;;;;;5093126;28;20359;-74
2023/09/20 03:49:14;;;;;;;9.02;2.83;;;;;;;;;;5076580;28;20051;-74
2023/09/20 03:51:41;;;;;;;7.43;2.88;;;;;;;;;;5092425;28;20460;-73
2023/09/20 03:54:08;;;;;;;7.20;2.88;;;;;;;;;;5085507;28;20052;-74
2023/09/20 03:56:35;;;;;;;6.43;2.42;;;;;;;;;;5068199;28;20073;-73
2023/09/20 03:59:01;;;;;;;9.30;3.00;;;;;;;;;;5093519;28;20040;-73
2023/09/20 04:01:28;;;;;;;6.25;2.85;;;;;;;;;;5060430;28;20447;-74
2023/09/20 04:03:54;;;;;;;7.13;2.70;;;21.20;95.30;;;;;;5059470;28;20477;-74
2023/09/20 04:06:20;;;;;;;7.85;2.63;;;;;;;;;;5093344;28;20051;-73
2023/09/20 04:08:46;;;;;;;6.72;2.78;;;21.20;95.30;;;;;;5075828;28;20059;-74
2023/09/20 04:11:12;;;;;;;8.85;3.35;;;;;;;;;;5094319;28;20440;-74
2023/09/20 04:13:38;;;;;;;8.60;3.10;;;21.20;95.30;;;;;;5094160;28;20052;-74
2023/09/20 04:16:05;;;;;;;7.82;2.85;;;;;;;;;;5075924;28;20526;-73
2023/09/20 04:18:32;;;;;;;6.55;3.00;;;;;;;;;;5073242;28;20048;-74
2023/09/20 04:20:59;;;;;;;9.35;3.10;;;;;;;;;;5094673;28;20044;-74
2023/09/20 04:23:26;;;;;;;7.60;2.72;;;;;;;;;;5094111;28;20075;-74
2023/09/20 04:25:52;;;;;;;5.85;2.85;;;;;;;;;;5075762;28;20050;-74
2023/09/20 04:28:18;;;;;;;6.70;2.75;;;;;;;;;;5074728;28;20047;-74
2023/09/20 04:30:44;;;;;;;5.40;2.78;;;;;;;;;;5093665;28;20510;-73
2023/09/20 04:33:10;;;;;;;8.32;3.38;;;;;;;;;;5075304;28;20094;-71
2023/09/20 04:35:37;;;;;;;6.93;3.00;;;;;;;;;;5092312;28;20380;-73
2023/09/20 04:38:03;;;;;;;7.68;3.15;;;;;;;;;;5093365;28;20048;-74
2023/09/20 04:40:29;;;;;;;7.20;2.92;;;21.10;95.30;;;;;;5093377;28;20497;-75
2023/09/20 04:42:55;;;;;;;9.13;3.33;;;;;;;;;;5093939;28;20041;-74
2023/09/20 04:45:22;;;;;;;8.10;3.45;;;;;;;;;;5075588;28;20059;-72
2023/09/20 04:47:49;;;;;;;6.20;2.85;;;21.00;95.20;;;;;;5092869;28;20039;-75
2023/09/20 04:50:16;;;;;;;9.00;3.47;;;21.10;95.30;;;;;;5092895;28;20047;-74
2023/09/20 04:52:45;;;;;;;7.32;2.83;;;;;;;;;;5093710;28;20129;-74
2023/09/20 04:55:11;;;;;;;8.75;3.10;;;;;;;;;;5075380;28;20052;-73
2023/09/20 04:57:37;;;;;;;7.03;3.22;;;;;;;;;;5056922;28;20119;-74
2023/09/20 05:00:15;;;;;;;6.07;2.75;;;21.20;94.70;;;;;;5041144;28;20048;-70
2023/09/20 05:02:44;;;;;;;7.20;2.97;;;;;;;;;;5066248;28;20477;-74
2023/09/20 05:05:10;;;;;;;7.60;2.90;;;;;;;;;;5076061;28;20036;-74
2023/09/20 05:07:36;;;;;;;5.97;3.00;;;;;;;;;;5074197;28;20040;-65
2023/09/20 05:10:02;;;;;;;8.63;2.95;;;21.00;95.10;;;;;;5074414;28;20078;-65
2023/09/20 05:12:28;;;;;;;7.13;3.05;;;21.10;95.20;;;;;;5065919;28;20053;-74
2023/09/20 05:14:54;;;;;;;6.78;3.28;;;21.00;95.20;;;;;;5088440;28;20079;-74
2023/09/20 05:17:23;;;;;;;6.75;3.00;;;;;;;;;;5076017;28;20049;-72
2023/09/20 05:19:50;;;;;;;6.50;2.88;;;;;;;;;;5093385;28;20143;-73
2023/09/20 05:22:16;;;;;;;11.10;3.40;;;21.20;95.10;;;;;;5055608;28;20044;-74
2023/09/20 05:24:42;;;;;;;8.05;2.97;;;21.00;95.10;;;;;;5073516;28;20051;-74
2023/09/20 05:27:08;;;;;;;5.50;2.65;;;21.10;95.10;;;;;;5073737;28;20060;-75
2023/09/20 05:29:34;;;;;;;9.15;2.92;;;;;;;;;;5042333;28;20036;-74
2023/09/20 05:32:00;;;;;;;6.68;2.83;;;;;;;;;;5073822;28;20044;-74
2023/09/20 05:34:28;;;;;;;6.57;3.05;;;;;;;;;;5074368;28;20040;-74
2023/09/20 05:36:54;;;;;;;6.82;3.03;;;;;;;;;;5058112;28;20048;-74
2023/09/20 05:39:20;;;;;;;7.53;2.72;;;;;;;;;;5058470;28;20036;-74
2023/09/20 05:41:47;;;;;;;6.72;2.97;;;;;;;;;;5074264;28;20039;-74
2023/09/20 05:44:13;;;;;;;5.97;2.95;;;;;;;;;;5074553;28;20390;-72
2023/09/20 05:46:40;;;;;;;7.57;3.30;;;;;;;;;;5057067;28;20036;-71
2023/09/20 05:49:06;;;;;;;9.88;3.38;;;;;;;;;;5040643;28;20043;-70
2023/09/20 05:51:33;;;;;;;7.32;2.50;;;;;;;;;;5058465;28;20055;-71
2023/09/20 05:54:02;;;;;;;6.95;3.35;;;;;;;;;;5073523;28;20473;-71
2023/09/20 05:56:31;;;;;;;10.00;3.25;;;;;;;;;;5074326;28;20047;-73
2023/09/20 05:58:58;;;;;;;7.18;3.15;;;;;;;;;;5073850;28;20540;-71
2023/09/20 06:01:24;;;;;;;7.78;2.80;;;21.00;94.80;;;;;;5058604;28;20044;-71
2023/09/20 06:03:50;;;;;;;7.60;2.88;;;;;;;;;;5091879;28;20040;-71
2023/09/20 06:06:16;;;;;;;8.57;3.20;;;;;;;;;;5090920;28;20071;-73
2023/09/20 06:08:45;;;;;;;6.68;2.92;;;;;;;;;;5074126;28;20039;-73
2023/09/20 06:11:14;;;;;;;5.28;2.72;;;21.30;94.80;;;;;;5057567;28;20047;-75
2023/09/20 06:13:40;;;;;;;7.78;3.13;;;;;;;;;;5073055;28;20513;-73
2023/09/20 06:16:07;;;;;;;7.45;2.90;;;;;;;;;;5037333;28;20414;-73
2023/09/20 06:18:35;;;;;;;7.75;2.95;;;;;;;;;;5059125;28;20046;-73
2023/09/20 06:21:08;;;;;;;6.97;3.00;;;21.10;94.70;;;;;;5074763;28;20401;-73
2023/09/20 06:23:35;;;;;;;6.00;2.75;;;;;;;;;;5073887;28;20047;-74
2023/09/20 06:26:11;;;;;;;6.05;2.75;;;21.20;93.10;;;;;;5037675;28;20040;-73
2023/09/20 06:28:37;;;;;;;6.38;2.83;;;;;;;;;;5070763;28;20044;-74
2023/09/20 06:31:07;;;;;;;7.05;2.47;;;21.20;94.70;;;;;;5057358;28;20404;-70
2023/09/20 06:33:34;;;;;;;6.10;2.38;;;21.20;94.70;;;;;;5074913;28;20432;-69
2023/09/20 06:36:01;;;;;;;7.25;2.72;;;21.10;94.70;;;;;;5055122;28;20473;-71
2023/09/20 06:38:28;;;;;;;6.20;2.90;;;21.10;94.70;;;;;;5073281;28;20039;-69
2023/09/20 06:40:55;;;;;;;7.40;2.97;;;;;;;;;;5091878;28;20048;-66
2023/09/20 06:43:22;;;;;;;5.13;2.65;;;;;;;;;;5090715;28;20056;-66
2023/09/20 06:45:55;;;;;;;8.27;3.00;;;21.10;94.90;;;;;;5089889;28;20040;-67
2023/09/20 06:48:22;;;;;;;4.80;2.30;;;21.10;94.70;;;;;;5091774;28;20052;-66
2023/09/20 06:50:49;;;;;;;5.63;2.90;;;21.10;94.70;;;;;;5090167;28;20055;-70
2023/09/20 06:53:17;;;;;;;6.22;2.90;;;20.90;95.10;;;;;;5072157;28;20044;-69
2023/09/20 06:55:44;;;;;;;5.97;2.72;;;21.10;94.80;;;;;;5072454;28;20036;-68
2023/09/20 06:58:21;;;;;;;7.97;2.83;;;21.00;94.70;;;;;;5084228;28;20036;-67
2023/09/20 07:00:56;;;;;;;6.43;2.80;;;21.10;94.80;;;;;;5090789;28;20051;-70
2023/09/20 07:03:25;;;;;;;7.80;3.03;;;21.10;94.80;;;;;;5092724;28;20117;-66
2023/09/20 07:05:51;;;;;;;5.13;2.42;;;;;;;;;;5071061;28;20055;-72
2023/09/20 07:08:21;;;;;;;7.43;3.00;;;21.10;94.70;;;;;;5089763;28;20052;-70
2023/09/20 07:10:51;;;;;;;5.75;2.40;;;21.00;94.80;;;;;;5090729;28;20066;-68
2023/09/20 07:13:18;;;;;;;5.38;2.47;;;;;;;;;;5090905;28;20044;-67
2023/09/20 07:15:46;;;;;;;6.32;2.70;;;;;;;;;;5091028;28;20126;-70
2023/09/20 07:18:15;;;;;;;7.18;2.90;;;21.30;94.80;;;;;;5063913;28;20044;-69
2023/09/20 07:20:44;;;;;;;7.72;3.00;;;21.30;93.00;;;;;;5070758;28;20097;-70
2023/09/20 07:23:15;;;;;;;6.97;2.85;;;;;;;;;;5092134;28;20406;-67
2023/09/20 07:25:44;;;;;;;6.75;2.67;;;21.10;93.20;;;;;;5071290;28;20040;-73
2023/09/20 07:28:13;;;;;;;7.57;3.00;;;21.20;93.80;;;;;;5089599;28;20484;-68
2023/09/20 07:30:45;;;;;;;6.78;2.80;;;;;;;;;;5055274;28;20826;-65
2023/09/20 07:33:11;;;;;;;8.52;3.10;;;21.30;94.60;;;;;;5074522;28;20054;-63
2023/09/20 07:35:52;;;;;;;5.85;2.80;;;21.50;94.70;;;;;;5043891;28;20087;-64
2023/09/20 07:38:25;;;;;;;6.18;2.60;;;21.50;93.40;;;;;;5062291;28;20474;-63
2023/09/20 07:40:51;;;;;;;5.43;2.53;;;;;;;;;;5092233;28;20048;-73
2023/09/20 07:43:20;;;;;;;6.95;2.42;;;21.50;94.60;;;;;;5090143;28;20072;-73
2023/09/20 07:45:49;;;;;;;5.68;2.55;;;21.50;94.60;;;;;;5094951;28;20115;-73
2023/09/20 07:48:21;;;;;;;7.80;2.97;;;;;;;;;;5094682;28;20044;-75
2023/09/20 07:50:51;;;;;;;8.45;2.60;;;21.70;94.40;;;;;;5093998;28;20063;-74
2023/09/20 07:53:19;;;;;;;6.78;3.10;;;21.90;93.30;;;;;;5059399;28;20269;-73
2023/09/20 07:56:01;;;;;;;6.32;2.80;;;21.90;94.40;;;;;;5042107;28;20075;-67
2023/09/20 07:58:28;;;;;;;;;;;22.10;92.90;;;;;;5061789;28;20467;-69
2023/09/20 08:00:56;;;;;;;9.27;3.25;;;;;;;;;;5058304;28;19939;-66
2023/09/20 08:03:32;;;;;;;6.97;2.72;;;22.10;94.10;;;;;;5060836;28;20048;-68
2023/09/20 08:05:59;;;;;;;7.13;2.78;;;22.10;94.10;;;;;;5059228;28;20137;-67
2023/09/20 08:08:27;;;;;;;9.20;3.00;;;22.40;93.10;;;;;;5060021;28;20051;-71
2023/09/20 08:10:57;;;;;;;8.05;3.42;;;22.40;94.00;;;;;;5073356;28;20505;-68
2023/09/20 08:13:25;;;;;;;7.72;2.78;;;22.40;94.10;;;;;;5034930;28;20048;-65
2023/09/20 08:15:51;;;;;;;9.68;3.70;;;22.40;94.00;;;;;;5058514;28;20523;-62
2023/09/20 08:21:03;;;;;;;7.35;2.92;;;22.30;93.70;;;;;;5046985;28;20082;-62
2023/09/20 09:02:06;;;;;;;7.68;3.00;;;22.60;93.60;;;;;;5077774;28;20036;-72
2023/09/20 09:04:31;;;;;;;5.70;2.90;;;22.60;93.50;;;;;;5038590;28;20189;-64
2023/09/20 09:06:57;;;;;;;6.93;2.90;;;22.70;92.50;;;;;;5039519;28;20052;-65
2023/09/20 09:09:23;;;;;;;8.02;3.60;;;22.50;93.30;;;;;;5083089;28;20055;-66
2023/09/20 09:11:49;;;;;;;6.53;3.15;;;22.50;93.40;;;;;;5076067;28;20169;-73
2023/09/20 09:14:15;;;;;;;7.05;2.70;;;22.70;93.30;;;;;;5089127;28;20067;-73
2023/09/20 09:16:41;;;;;;;7.75;3.58;;;22.50;92.20;;;;;;5053601;28;20048;-72
2023/09/20 09:19:11;;;;;;;6.72;3.25;;;22.60;93.50;;;;;;5051067;28;20044;-68
2023/09/20 09:21:42;;;;;;;9.18;3.25;;;22.50;93.20;;;;;;5072422;28;20067;-68
2023/09/20 09:24:09;;;;;;;8.77;3.25;;;22.50;93.20;;;;;;5054828;28;20045;-71
2023/09/20 09:26:38;;;;;;;6.93;2.83;;;22.60;93.20;;;;;;5052288;28;20048;-69
2023/09/20 09:29:07;;;;;;;6.28;2.90;;;22.50;92.50;;;;;;5072849;28;20175;-72
2023/09/20 09:31:35;;;;;;;5.53;3.00;;;22.80;92.30;;;;;;5055603;28;20041;-71
2023/09/20 09:34:01;;;;;;;6.07;2.90;;;;;;;;;;5038581;28;20187;-71
2023/09/20 09:36:28;;;;;;;6.03;3.17;;;;;;;;;;5070454;28;20036;-72
2023/09/20 09:39:09;;;;;;;6.60;3.08;;;22.40;91.30;;;;;;5073295;28;20048;-73
2023/09/20 09:41:44;;;;;;;7.03;2.85;;;22.70;92.40;;;;;;5071596;28;20055;-72
2023/09/20 09:44:11;;;;;;;6.60;3.08;;;;;;;;;;5055145;28;20048;-72
2023/09/20 09:46:41;;;;;;;6.80;2.83;;;22.60;91.50;;;;;;5053319;28;20051;-71
2023/09/20 09:49:18;;;;;;;6.70;2.80;;;;;;;;;;5071440;28;20048;-71
2023/09/20 09:51:50;;;;;;;8.63;2.75;;;22.70;91.80;;;;;;5054901;28;20087;-62
2023/09/20 09:54:16;;;;;;;6.13;2.78;;;22.60;92.20;;;;;;5072837;28;20048;-73
2023/09/20 09:56:43;;;;;;;6.10;2.67;;;22.40;92.20;;;;;;5070979;28;20483;-69
2023/09/20 09:59:10;;;;;;;6.40;3.03;;;22.80;92.30;;;;;;5068073;28;20768;-71
2023/09/20 10:01:36;;;;;;;5.18;2.58;;;22.50;92.20;;;;;;5072564;28;20059;-73
2023/09/20 10:04:10;;;;;;;5.15;2.50;;;22.60;93.40;;;;;;5071439;28;20048;-72
2023/09/20 10:07:05;;;;;;;6.75;2.67;;;22.50;92.10;;;;;;5071777;28;20032;-73
2023/09/20 10:09:35;;;;;;;5.60;2.75;;;22.60;91.80;;;;;;5048336;28;20087;-73
2023/09/20 10:12:01;;;;;;;5.97;2.70;;;;;;;;;;5054275;28;20072;-74
2023/09/20 10:14:28;;;;;;;7.20;2.90;;;22.60;93.40;;;;;;5070654;28;20048;-73
2023/09/20 10:16:54;;;;;;;6.40;2.60;;;22.30;93.60;;;;;;5070872;28;20397;-73
2023/09/20 10:19:20;;;;;;;5.32;2.60;;;;;;;;;;5070492;28;20120;-70
2023/09/20 10:22:08;;;;;;;7.70;2.80;;;22.50;93.40;;;;;;5072058;28;20080;-72
2023/09/20 10:24:54;;;;;;;5.82;2.70;;;22.50;93.70;;;;;;5070271;28;20048;-72
2023/09/20 10:27:22;;;;;;;5.70;2.75;;;22.50;92.20;;;;;;5055700;28;20405;-73
2023/09/20 10:30:09;;;;;;;5.43;2.50;;;22.60;92.60;;;;;;5086592;28;20041;-72
2023/09/20 10:32:53;;;;;;;6.10;2.60;;;22.70;92.50;;;;;;5037806;28;20051;-73
2023/09/20 10:35:25;;;;;;;5.55;2.53;;;22.60;93.80;;;;;;5044498;28;20036;-72
2023/09/20 10:40:45;;;;;;;6.13;2.58;;;22.80;93.60;;;;;;5070263;28;20044;-72
2023/09/20 10:43:15;;;;;;;5.80;2.30;;;22.80;92.20;;;;;;5071828;28;20044;-72
2023/09/20 10:45:44;;;;;;;7.00;2.80;;;22.50;93.40;;;;;;5050370;28;20063;-71
2023/09/20 10:48:12;;;;;;;6.68;2.80;;;22.70;93.60;;;;;;5068687;28;20041;-71
2023/09/20 10:50:57;;;;;;;6.60;2.60;;;22.80;92.40;;;;;;5060048;28;20426;-65
2023/09/20 10:53:52;;;;;;;5.97;2.50;;;22.50;92.50;;;;;;5071301;28;20497;-71
2023/09/20 10:56:44;;;;;;;6.43;2.50;;;22.50;93.40;;;;;;5025464;28;20057;-72
2023/09/20 10:59:24;;;;;;;5.22;2.58;;;22.50;93.30;;;;;;5071648;28;20036;-67
2023/09/20 11:01:55;;;;;;;6.32;2.58;;;22.70;93.60;;;;;;5053002;28;20058;-72
2023/09/20 11:04:21;;;;;;;4.85;2.33;;;22.70;93.60;;;;;;5054079;28;20045;-72
2023/09/20 11:06:50;;;;;;;5.70;2.50;;;22.70;92.30;;;;;;5068838;28;20084;-71
2023/09/20 11:09:16;;;;;;;5.97;2.53;;;23.00;93.90;;;;;;5075075;28;20044;-72
2023/09/20 11:11:43;;;;;;;7.07;2.60;;;22.70;92.40;;;;;;5055800;28;20048;-71
2023/09/20 11:14:14;;;;;;;4.68;2.20;;;20.90;92.10;;;;;;5088884;28;20056;-72
2023/09/20 11:16:42;;;;;;;6.28;2.63;;;22.50;92.60;;;;;;5094535;28;20047;-72
2023/09/20 11:19:14;;;;;;;4.32;2.13;;;22.40;92.40;;;;;;5095915;28;20062;-70
2023/09/20 11:21:47;;;;;;;4.07;2.00;;;22.20;93.40;;;;;;5093885;28;20064;-72
2023/09/20 11:24:14;;;;;;;6.40;2.58;;;;;;;;;;5076486;28;20309;-71
2023/09/20 11:26:43;;;;;;;5.10;2.10;;;;;;;;;;5095093;28;20497;-72
2023/09/20 11:29:10;;;;;;;5.72;2.50;;;22.40;93.60;;;;;;5095350;28;20048;-71
2023/09/20 11:31:36;;;;;;;5.97;2.10;;;22.30;92.40;;;;;;5077589;28;20047;-62
2023/09/20 11:34:03;;;;;;;4.43;2.38;;;22.40;93.60;;;;;;5093071;28;20161;-69
2023/09/20 11:36:37;;;;;;;5.07;1.92;;;22.10;92.10;;;;;;5073800;28;20305;-71
2023/09/20 11:39:05;;;;;;;6.07;2.30;;;22.30;94.10;;;;;;5058954;28;20051;-71
2023/09/20 11:41:32;;;;;;;5.50;2.20;;;22.40;92.10;;;;;;5080087;28;20047;-72
2023/09/20 11:44:00;;;;;;;4.97;2.08;;;;;;;;;;5057178;28;20082;-70
2023/09/20 11:46:33;;;;;;;5.30;2.50;;;22.30;93.70;;;;;;5082465;28;20045;-72
2023/09/20 11:49:03;;;;;;;6.68;2.50;;;22.40;92.40;;;;;;5074097;28;20036;-71
2023/09/20 11:51:31;;;;;;;4.25;2.38;;;22.30;93.70;;;;;;5072763;28;20051;-72
2023/09/20 11:54:05;;;;;;;7.78;2.55;;;22.70;92.90;;;;;;5043066;28;20044;-73
2023/09/20 11:56:32;;;;;;;7.88;2.72;;;22.50;93.90;;;;;;5058940;28;20071;-72
2023/09/20 11:59:03;;;;;;;10.02;2.50;;;22.40;94.10;;;;;;5076748;28;20052;-73
2023/09/20 12:01:33;;;;;;;12.98;3.20;;;22.30;93.70;;;;;;5089174;28;20048;-62
2023/09/20 12:03:59;;;;;;;7.60;2.90;;;22.40;94.20;;;;;;5057312;28;20130;-63
2023/09/20 12:06:25;;;;;;;7.88;2.67;;;22.50;93.90;;;;;;5074442;28;20346;-71
2023/09/20 12:08:53;;;;;;;9.88;2.60;;;22.50;92.70;;;;;;5094909;28;20122;-71
2023/09/20 12:11:19;;;;;;;6.55;2.85;;;;;;;;;;5076985;28;20048;-70
2023/09/20 12:13:46;;;;;;;9.07;2.70;;;22.40;91.90;;;;;;5076101;28;20214;-72
2023/09/20 12:16:14;;;;;;;6.82;2.40;;;;;;;;;;5075662;28;20420;-71
2023/09/20 12:18:41;;;;;;;7.43;2.53;;;22.50;94.30;;;;;;5094843;28;20058;-72
2023/09/20 12:21:08;;;;;;;7.38;2.30;;;22.40;94.10;;;;;;5075382;28;20078;-72
2023/09/20 12:23:35;;;;;;;8.98;3.30;;;22.50;94.30;;;;;;5075404;28;20044;-72
2023/09/20 12:26:07;;;;;;;8.88;2.65;;;22.60;93.00;;;;;;5025110;28;20135;-71
2023/09/20 12:28:34;;;;;;;7.00;2.53;;;22.50;94.10;;;;;;5040021;28;20044;-70
2023/09/20 12:31:01;;;;;;;8.70;2.30;;;;;;;;;;5023693;28;20135;-72
2023/09/20 12:33:27;;;;;;;6.22;2.50;;;22.50;92.00;;;;;;5026824;28;20039;-72
2023/09/20 12:35:54;;;;;;;7.18;2.47;;;;;;;;;;5042868;28;20036;-72
2023/09/20 12:38:21;;;;;;;5.65;2.30;;;22.60;94.30;;;;;;5076189;28;20032;-73
2023/09/20 12:40:47;;;;;;;6.78;2.50;;;;;;;;;;5027584;28;20401;-75
2023/09/20 12:43:15;;;;;;;7.93;2.47;;;22.70;93.90;;;;;;5042995;28;20070;-72
2023/09/20 12:45:43;;;;;;;5.80;2.47;;;22.70;93.70;;;;;;5051120;23;20528;-72
2023/09/20 12:48:12;;;;;;;5.65;2.53;;;22.90;92.70;;;;;;5076119;28;20048;-72
2023/09/20 12:50:41;;;;;;;8.38;2.63;;;22.60;92.10;;;;;;5094510;28;20389;-64
2023/09/20 12:53:08;;;;;;;6.13;2.58;;;22.60;92.50;;;;;;5075588;28;20122;-72
2023/09/20 12:55:38;;;;;;;6.20;2.55;;;22.70;92.60;;;;;;5053867;28;20049;-74
2023/09/20 12:58:08;;;;;;;5.72;2.50;;;23.00;93.70;;;;;;5057556;28;20040;-72
2023/09/20 13:00:35;;;;;;;5.60;2.67;;;22.80;93.90;;;;;;5094337;28;20067;-72
2023/09/20 13:03:05;;;;;;;6.03;2.33;;;22.80;92.10;;;;;;5093635;28;20115;-72
2023/09/20 13:05:32;;;;;;;5.93;2.55;;;22.80;92.50;;;;;;5070586;28;20037;-72
2023/09/20 13:07:59;;;;;;;5.97;2.65;;;;;;;;;;5056101;28;20056;-73
2023/09/20 13:10:27;;;;;;;5.82;2.47;;;22.90;92.20;;;;;;5055346;28;20080;-73
2023/09/20 13:12:53;;;;;;;5.78;2.70;;;23.50;92.70;;;;;;5039422;28;20071;-72
2023/09/20 13:15:20;;;;;;;5.93;2.55;;;22.80;92.50;;;;;;5084760;28;20043;-71
2023/09/20 13:17:48;;;;;;;5.75;3.00;;;22.80;92.30;;;;;;5091757;28;20471;-72
2023/09/20 13:20:15;;;;;;;6.65;2.85;;;23.10;92.40;;;;;;5073598;28;20036;-70
2023/09/20 13:22:42;;;;;;;5.68;2.60;;;23.00;93.30;;;;;;5089613;28;20044;-66
2023/09/20 13:25:18;;;;;;;7.65;3.20;;;23.80;92.40;;;;;;5075956;28;20035;-73
2023/09/20 13:27:45;;;;;;;11.13;3.30;;;;;;;;;;5088166;28;20050;-72
2023/09/20 13:30:12;;;;;;;9.85;3.17;;;22.90;93.10;;;;;;5091191;28;20051;-71
2023/09/20 13:32:39;;;;;;;6.72;3.33;;;23.10;91.90;;;;;;5069945;28;20047;-72
2023/09/20 13:35:10;;;;;;;7.30;3.08;;;22.90;92.10;;;;;;5071910;28;20044;-72
2023/09/20 13:37:45;;;;;;;9.10;3.80;;;22.90;91.40;;;;;;5093555;28;20051;-72
2023/09/20 13:40:18;;;;;;;8.63;3.50;;;22.90;93.10;;;;;;5092466;28;20111;-72
2023/09/20 13:42:47;;;;;;;6.82;3.28;;;23.10;91.50;;;;;;5073969;28;20051;-72
2023/09/20 13:45:15;;;;;;;6.15;2.95;;;22.90;93.10;;;;;;5072397;28;20121;-62
2023/09/20 13:47:41;;;;;;;7.22;3.35;;;23.10;93.10;;;;;;5074968;28;20083;-63
2023/09/20 13:50:15;;;;;;;7.72;3.58;;;23.00;91.80;;;;;;5093800;28;20439;-67
2023/09/20 13:52:43;;;;;;;6.35;3.30;;;22.90;91.80;;;;;;5069588;28;20043;-68
2023/09/20 13:55:18;;;;;;;5.25;3.17;;;22.70;92.80;;;;;;5056102;28;20124;-71
2023/09/20 13:57:47;;;;;;;8.25;3.38;;;23.10;91.90;;;;;;5059107;28;20512;-72
2023/09/20 14:00:15;;;;;;;13.60;3.85;;;22.70;93.10;;;;;;5090575;28;20045;-70
2023/09/20 14:02:41;;;;;;;6.82;3.30;;;22.60;91.80;;;;;;5074692;28;20123;-71
2023/09/20 14:05:16;;;;;;;8.07;3.33;;;22.90;91.90;;;;;;5072214;28;20052;-71
2023/09/20 14:07:46;;;;;;;8.38;3.40;;;22.60;93.00;;;;;;5092684;28;20052;-71
2023/09/20 14:10:17;;;;;;;8.95;3.05;;;22.80;91.90;;;;;;5092409;28;20105;-70
2023/09/20 14:12:46;;;;;;;6.10;3.22;;;22.90;92.30;;;;;;5071725;28;20044;-71
2023/09/20 14:15:12;;;;;;;10.20;4.15;;;22.70;93.10;;;;;;5071080;28;20028;-62
2023/09/20 14:17:40;;;;;;;13.40;3.47;;;22.80;93.10;;;;;;5089251;28;20043;-62